Time;durP1;ratioP1;P1;durP2;ratioP2;P2;SDS_P1;SDS_P2;PMS_P1;PMS_P2;Temp;Humidity;BMP_temperature;BMP_pressure;BME280_temperature;BME280_humidity;BME280_pressure;Samples;Min_cycle;Max_cycle;Signal;HPM_P1;HPM_P2
2022/11/03 00:03:28;;;;;;;6.97;2.20;;;;;;;3.55;100.00;97222.44;10370658;28;20288;-74
2022/11/03 00:08:30;;;;;;;8.03;2.07;;;;;;;3.47;100.00;97222.13;10370791;28;20209;-75
2022/11/03 00:13:30;;;;;;;12.43;2.83;;;;;;;3.16;100.00;97205.97;10369218;28;20200;-73
2022/11/03 00:18:31;;;;;;;8.13;2.00;;;;;;;3.29;100.00;97206.00;10336713;28;20588;-75
2022/11/03 00:23:34;;;;;;;4.00;1.93;;;;;;;3.17;100.00;97197.25;10370046;28;20539;-75
2022/11/03 00:28:35;;;;;;;5.90;2.20;;;;;;;2.94;100.00;97194.38;10369931;28;20217;-75
2022/11/03 00:33:36;;;;;;;3.70;1.77;;;;;;;2.84;100.00;97201.88;10351788;28;20563;-74
2022/11/03 00:38:37;;;;;;;6.30;2.00;;;;;;;2.78;100.00;97196.28;10369234;28;20237;-75
2022/11/03 00:43:38;;;;;;;8.03;2.43;;;;;;;2.71;100.00;97190.66;10367170;28;20192;-75
2022/11/03 00:48:38;;;;;;;9.23;2.67;;;;;;;2.75;100.00;97184.34;10369560;28;20589;-74
2022/11/03 00:53:45;;;;;;;7.03;2.03;;;;;;;2.76;100.00;97167.91;10368485;28;20189;-75
2022/11/03 00:58:46;;;;;;;12.43;2.50;;;;;;;2.72;100.00;97176.78;10366476;28;20661;-74
2022/11/03 01:09:07;;;;;;;6.40;2.40;;;;;;;2.62;100.00;97188.63;10367760;28;20200;-75
2022/11/03 01:14:13;;;;;;;8.97;1.90;;;;;;;2.65;100.00;97196.22;10367124;28;20192;-75
2022/11/03 01:19:13;;;;;;;11.33;3.00;;;;;;;2.65;100.00;97193.63;10349612;28;20701;-75
2022/11/03 01:24:14;;;;;;;12.93;2.60;;;;;;;2.74;100.00;97192.22;10368302;28;20185;-75
2022/11/03 01:29:14;;;;;;;8.73;2.27;;;;;;;2.85;100.00;97185.44;10367814;28;20203;-74
2022/11/03 01:34:16;;;;;;;6.23;2.20;;;;;;;2.67;100.00;97173.66;10367976;28;20295;-75
2022/11/03 01:39:18;;;;;;;7.57;2.10;;;;;;;2.70;100.00;97175.25;10349495;28;20661;-75
2022/11/03 01:44:18;;;;;;;9.27;2.30;;;;;;;2.60;100.00;97177.56;10367205;28;20196;-75
2022/11/03 01:49:24;;;;;;;11.73;2.30;;;;;;;2.54;100.00;97162.41;10367083;28;20212;-75
2022/11/03 01:54:26;;;;;;;8.43;2.10;;;;;;;2.56;100.00;97157.97;10367342;28;20451;-75
2022/11/03 01:59:27;;;;;;;7.03;2.10;;;;;;;2.63;100.00;97165.28;10347561;28;20221;-75
2022/11/03 02:04:32;;;;;;;9.83;2.70;;;;;;;2.58;100.00;97159.53;10366142;28;20665;-75
2022/11/03 02:09:32;;;;;;;7.27;1.80;;;;;;;2.36;100.00;97138.53;10366202;28;20547;-75
2022/11/03 02:14:35;;;;;;;10.47;2.17;;;;;;;2.16;100.00;97122.50;10366763;28;20193;-75
2022/11/03 02:19:59;;;;;;;7.23;2.37;;;;;;;2.05;100.00;97125.75;10365881;28;20219;-75
2022/11/03 02:25:33;;;;;;;6.73;2.40;;;;;;;1.91;100.00;97117.97;10381484;28;20185;-75
2022/11/03 02:30:44;;;;;;;5.63;2.27;;;;;;;1.99;100.00;97112.34;10348538;28;20288;-75
2022/11/03 02:35:54;;;;;;;13.07;2.50;;;;;;;1.83;100.00;97104.72;10348781;28;20610;-74
2022/11/03 02:40:58;;;;;;;8.93;2.67;;;;;;;1.71;100.00;97107.09;10348722;28;20229;-75
2022/11/03 02:45:58;;;;;;;6.30;2.13;;;;;;;1.59;100.00;97082.00;10348107;28;20742;-74
2022/11/03 02:50:59;;;;;;;5.77;2.70;;;;;;;1.43;100.00;97082.09;10348454;28;20213;-75
2022/11/03 02:56:06;;;;;;;7.13;2.30;;;;;;;1.24;100.00;97074.56;10366272;28;20197;-75
2022/11/03 03:01:22;;;;;;;4.67;2.30;;;;;;;1.12;100.00;97063.25;10353816;28;20217;-75
2022/11/03 03:06:45;;;;;;;4.87;2.63;;;;;;;0.92;100.00;97056.66;10373243;28;21037;-75
2022/11/03 03:11:46;;;;;;;13.43;2.60;;;;;;;0.90;100.00;97048.16;10373411;28;20191;-75
2022/11/03 03:16:59;;;;;;;9.53;2.80;;;;;;;0.86;100.00;97038.97;10355242;28;20185;-75
2022/11/03 03:22:03;;;;;;;8.43;2.13;;;;;;;0.83;100.00;97028.81;10371917;28;20229;-74
2022/11/03 03:27:06;;;;;;;6.60;2.57;;;;;;;0.73;100.00;97015.59;10354699;28;20347;-75
2022/11/03 03:32:08;;;;;;;7.13;2.27;;;;;;;0.61;100.00;97018.88;10387304;28;20181;-74
2022/11/03 03:37:10;;;;;;;6.60;2.50;;;;;;;0.49;100.00;97008.38;10354302;28;20232;-74
2022/11/03 03:42:13;;;;;;;6.47;2.80;;;;;;;0.25;100.00;97009.75;10371811;28;20237;-75
2022/11/03 03:47:33;;;;;;;10.67;3.13;;;;;;;0.02;100.00;97004.09;10395285;28;20201;-74
2022/11/03 03:52:34;;;;;;;12.13;3.10;;;;;;;-0.08;100.00;96996.03;10371022;28;20703;-74
2022/11/03 03:57:35;;;;;;;12.20;3.30;;;;;;;-0.08;100.00;96972.03;10386465;28;20236;-74
2022/11/03 04:02:35;;;;;;;14.37;3.00;;;;;;;0.00;100.00;96969.88;10369406;28;20211;-74
2022/11/03 04:07:48;;;;;;;10.53;3.10;;;;;;;0.11;100.00;96959.00;10365616;28;20248;-74
2022/11/03 04:23:26;;;;;;;12.97;3.63;;;;;;;3.41;100.00;96955.78;10362706;28;20193;-75
2022/11/03 04:28:27;;;;;;;10.90;2.53;;;;;;;4.19;100.00;96936.44;10364100;28;20185;-75
2022/11/03 04:33:28;;;;;;;15.83;2.73;;;;;;;4.26;100.00;96916.94;10346059;28;20669;-75
2022/11/03 04:38:28;;;;;;;6.37;1.87;;;;;;;4.74;100.00;96890.03;10344664;28;20240;-75
2022/11/03 04:43:34;;;;;;;5.70;1.70;;;;;;;5.38;100.00;96871.28;10361431;28;20655;-75
2022/11/03 04:48:35;;;;;;;8.73;1.87;;;;;;;5.49;100.00;96854.84;10361512;28;20193;-75
2022/11/03 04:53:35;;;;;;;3.00;1.43;;;;;;;5.79;100.00;96832.56;10344563;28;20209;-75
2022/11/03 04:58:35;;;;;;;6.63;1.83;;;;;;;5.92;100.00;96819.41;10343911;28;20267;-75
2022/11/03 05:03:36;;;;;;;10.57;1.97;;;;;;;6.22;100.00;96808.31;10366285;28;20197;-75
2022/11/03 05:08:37;;;;;;;5.43;1.30;;;;;;;6.68;100.00;96791.44;10368318;28;20549;-75
2022/11/03 05:13:37;;;;;;;7.23;1.40;;;;;;;6.96;100.00;96792.50;10350629;28;20200;-75
2022/11/03 05:18:41;;;;;;;5.57;2.17;;;;;;;7.09;100.00;96774.03;10367339;28;20229;-75
2022/11/03 05:23:50;;;;;;;13.03;3.03;;;;;;;7.23;100.00;96775.44;10352230;28;20194;-75
2022/11/03 05:28:58;;;;;;;9.77;2.03;;;;;;;7.11;100.00;96798.16;10351792;28;20221;-76
2022/11/03 05:34:01;;;;;;;4.73;1.87;;;;;;;7.07;100.00;96786.34;10367848;28;20545;-75
2022/11/03 05:39:24;;;;;;;12.10;2.27;;;;;;;6.93;100.00;96778.91;10349096;28;20237;-75
2022/11/03 05:44:36;;;;;;;7.80;1.83;;;;;;;6.92;100.00;96785.91;10367231;28;20677;-75
2022/11/03 05:49:36;;;;;;;11.93;2.10;;;;;;;6.86;100.00;96772.56;10350162;28;20193;-75
2022/11/03 05:54:36;;;;;;;7.13;2.40;;;;;;;6.71;100.00;96777.34;10367198;28;20193;-75
2022/11/03 05:59:37;;;;;;;4.50;1.60;;;;;;;6.83;100.00;96784.09;10349641;28;20217;-75
2022/11/03 06:04:39;;;;;;;6.57;2.37;;;;;;;6.82;100.00;96774.63;10349896;28;20203;-75
2022/11/03 06:09:39;;;;;;;11.37;2.20;;;;;;;6.78;100.00;96771.47;10349112;28;20660;-75
2022/11/03 06:14:40;;;;;;;7.90;2.37;;;;;;;6.77;100.00;96763.78;10367362;28;20194;-75
2022/11/03 06:19:42;;;;;;;8.17;2.37;;;;;;;6.65;100.00;96770.88;10366537;28;20221;-75
2022/11/03 06:24:44;;;;;;;8.17;1.93;;;;;;;6.78;100.00;96761.06;10349470;28;20189;-75
2022/11/03 06:29:49;;;;;;;5.53;1.30;;;;;;;7.04;100.00;96755.34;10366249;28;20543;-74
2022/11/03 06:34:51;;;;;;;4.43;1.40;;;;;;;6.99;100.00;96744.53;10353645;28;20231;-75
2022/11/03 06:39:58;;;;;;;8.33;1.60;;;;;;;7.10;100.00;96730.56;10373924;28;20236;-74
2022/11/03 06:45:00;;;;;;;10.00;1.50;;;;;;;7.24;100.00;96726.75;10356655;28;20190;-75
2022/11/03 06:50:00;;;;;;;5.43;1.53;;;;;;;7.31;100.00;96733.06;10373824;28;20194;-75
2022/11/03 06:55:04;;;;;;;9.13;2.10;;;;;;;7.36;100.00;96732.66;10373405;28;20207;-74
2022/11/03 07:00:18;;;;;;;5.10;1.93;;;;;;;7.50;100.00;96727.88;10368797;28;20312;-75
2022/11/03 07:05:32;;;;;;;7.07;1.77;;;;;;;7.81;99.33;96716.44;10330471;28;20197;-74
2022/11/03 07:10:33;;;;;;;3.57;1.43;;;;;;;7.97;98.23;96719.31;10332548;28;20662;-75
2022/11/03 07:15:36;;;;;;;5.83;1.67;;;;;;;8.05;97.57;96697.75;10315437;28;20194;-75
2022/11/03 07:20:38;;;;;;;3.73;1.43;;;;;;;8.13;96.71;96678.78;10332274;28;20225;-74
2022/11/03 07:25:38;;;;;;;4.93;1.27;;;;;;;8.16;95.77;96683.72;10332124;28;20191;-74
2022/11/03 07:30:38;;;;;;;6.33;1.40;;;;;;;8.25;95.08;96653.34;10314269;28;20186;-75
2022/11/03 07:35:43;;;;;;;10.33;1.70;;;;;;;8.48;94.22;96669.47;10314047;28;20706;-75
2022/11/03 07:40:44;;;;;;;5.00;1.80;;;;;;;8.69;91.99;96632.69;10313898;28;20644;-75
2022/11/03 07:45:49;;;;;;;2.73;1.37;;;;;;;8.99;89.41;96628.91;10343831;28;20248;-75
2022/11/03 07:50:52;;;;;;;5.90;1.40;;;;;;;8.99;87.17;96613.25;10370236;28;20282;-74
2022/11/03 07:55:54;;;;;;;3.27;1.27;;;;;;;9.10;86.15;96612.19;10353587;28;20669;-75
2022/11/03 08:00:57;;;;;;;7.30;1.40;;;;;;;9.10;85.92;96594.72;10365733;28;20638;-75
2022/11/03 08:05:57;;;;;;;6.40;1.47;;;;;;;9.36;85.42;96593.94;10410370;28;20192;-75
2022/11/03 08:10:58;;;;;;;9.73;1.77;;;;;;;9.35;85.28;96594.09;10409504;28;20223;-74
2022/11/03 08:15:58;;;;;;;4.23;1.67;;;;;;;9.30;84.54;96578.06;10392195;28;20211;-74
2022/11/03 08:20:59;;;;;;;2.63;0.87;;;;;;;9.53;83.74;96568.75;10391355;28;20760;-74
2022/11/03 08:25:59;;;;;;;5.40;1.53;;;;;;;9.20;84.50;96568.50;10351087;28;20775;-75
2022/11/03 08:31:03;;;;;;;3.70;1.43;;;;;;;9.35;84.10;96563.53;10350713;28;20197;-75
2022/11/03 08:36:04;;;;;;;9.10;1.90;;;;;;;9.39;83.13;96557.03;10367576;28;20249;-76
2022/11/03 08:41:04;;;;;;;3.10;1.50;;;;;;;9.32;83.72;96569.06;10350149;28;20630;-75
2022/11/03 08:46:05;;;;;;;4.20;1.33;;;;;;;9.56;80.65;96520.56;10350100;28;20185;-76
2022/11/03 08:51:07;;;;;;;4.47;1.27;;;;;;;9.84;78.98;96502.06;10367123;28;20189;-75
2022/11/03 08:56:07;;;;;;;4.10;1.30;;;;;;;10.00;76.80;96465.50;10333309;28;20193;-75
2022/11/03 09:01:08;;;;;;;4.80;1.70;;;;;;;10.09;77.17;96477.63;10365901;28;20221;-76
2022/11/03 09:06:08;;;;;;;9.07;1.77;;;;;;;10.14;76.06;96474.53;10348994;28;20190;-76
2022/11/03 09:11:09;;;;;;;5.80;1.40;;;;;;;10.13;75.90;96460.59;10364903;28;20196;-75
2022/11/03 09:16:09;;;;;;;6.60;1.70;;;;;;;10.09;76.78;96468.94;10365965;28;20194;-75
2022/11/03 09:21:09;;;;;;;6.10;1.60;;;;;;;10.00;74.94;96444.56;10363892;28;20625;-76
2022/11/03 09:26:10;;;;;;;9.70;2.00;;;;;;;10.27;74.72;96453.91;10357124;28;20198;-76
2022/11/03 09:31:10;;;;;;;5.97;1.33;;;;;;;10.53;73.29;96421.56;10366559;28;20244;-76
2022/11/03 09:36:11;;;;;;;4.13;1.37;;;;;;;10.79;71.96;96408.28;10357935;28;20261;-76
2022/11/03 09:41:16;;;;;;;3.35;1.30;;;;;;;11.10;71.04;96398.91;10324307;28;20245;-76
2022/11/03 09:46:17;;;;;;;3.38;1.20;;;;;;;11.12;70.33;96394.31;10306371;28;20625;-76
2022/11/03 09:51:20;;;;;;;6.20;1.42;;;;;;;11.18;70.60;96388.41;10305013;28;20182;-76
2022/11/03 09:56:21;;;;;;;3.28;1.20;;;;;;;11.26;70.78;96392.84;10321374;28;20286;-75
2022/11/03 10:01:22;;;;;;;6.22;1.50;;;;;;;11.39;70.86;96395.72;10303024;28;20213;-75
2022/11/03 10:06:22;;;;;;;7.47;1.35;;;;;;;11.64;68.43;96369.38;10322922;28;20186;-76
2022/11/03 10:11:26;;;;;;;2.63;1.20;;;;;;;11.91;67.47;96339.22;10330748;28;20209;-75
2022/11/03 10:16:31;;;;;;;3.75;1.00;;;;;;;12.06;66.38;96337.50;10314745;28;20209;-76
2022/11/03 10:21:36;;;;;;;7.38;2.17;;;;;;;11.63;67.96;96341.53;10343972;28;20210;-76
2022/11/03 10:26:51;;;;;;;2.85;1.15;;;;;;;11.42;68.27;96324.56;10313625;28;20194;-77
2022/11/03 10:31:54;;;;;;;3.50;1.15;;;;;;;11.32;68.90;96339.72;10313943;28;20194;-76
2022/11/03 10:37:20;;;;;;;4.00;1.70;;;;;;;11.71;67.88;96337.03;10331755;28;20963;-77
2022/11/03 10:42:22;;;;;;;2.60;1.40;;;;;;;12.02;68.13;96335.41;10326499;28;20191;-76
2022/11/03 10:47:40;;;;;;;3.20;1.63;;;;;;;11.88;69.24;96335.16;10329060;28;20186;-77
2022/11/03 10:52:41;;;;;;;11.55;2.03;;;;;;;12.04;70.06;96347.38;10313101;28;20202;-76
2022/11/03 10:57:42;;;;;;;7.22;1.58;;;;;;;12.19;69.53;96330.84;10335671;28;20845;-76
2022/11/03 11:02:43;;;;;;;5.55;1.42;;;;;;;13.15;68.06;96295.06;10339440;28;20190;-76
2022/11/03 11:07:44;;;;;;;4.13;1.88;;;;;;;13.44;67.65;96275.03;10329500;28;20237;-77
2022/11/03 11:13:05;;;;;;;5.05;1.85;;;;;;;13.47;65.86;96245.69;10311777;28;20308;-77
2022/11/03 11:18:05;;;;;;;6.03;1.48;;;;;;;12.96;68.12;96275.44;10328424;28;20268;-76
2022/11/03 11:23:27;;;;;;;3.70;1.50;;;;;;;13.16;68.58;96270.41;10345242;28;20622;-77
2022/11/03 11:28:28;;;;;;;2.15;1.10;;;;;;;13.56;67.74;96244.59;10329829;28;20190;-77
2022/11/03 11:33:30;;;;;;;2.53;1.48;;;;;;;14.07;66.69;96240.19;10344977;28;20205;-78
2022/11/03 11:39:06;;;;;;;3.33;1.50;;;;;;;13.84;67.36;96230.69;10327345;28;20756;-75
2022/11/03 11:44:56;;;;;;;6.88;2.03;;;;;;;14.01;68.71;96244.41;10280594;28;20190;-77
2022/11/03 11:50:06;;;;;;;3.85;1.90;;;;;;;14.35;67.18;96219.13;10310434;28;20531;-76
2022/11/03 11:55:16;;;;;;;5.00;2.10;;;;;;;13.25;69.84;96247.47;10325843;28;20197;-76
2022/11/03 12:00:17;;;;;;;7.75;1.73;;;;;;;13.07;71.01;96262.81;10307992;28;20210;-76
2022/11/03 12:05:23;;;;;;;7.05;2.13;;;;;;;12.99;71.43;96256.66;10325635;28;20205;-77
2022/11/03 12:10:26;;;;;;;3.17;1.55;;;;;;;13.15;71.07;96245.09;10294686;28;20182;-76
2022/11/03 12:15:55;;;;;;;2.75;1.63;;;;;;;13.22;70.19;96239.13;10290932;28;20678;-76
2022/11/03 12:20:55;;;;;;;7.78;1.95;;;;;;;13.88;69.39;96229.28;10327475;28;20226;-76
2022/11/03 12:25:56;;;;;;;7.03;2.33;;;;;;;14.43;66.75;96191.81;10308919;28;20205;-76
2022/11/03 12:30:56;;;;;;;4.68;2.03;;;;;;;15.60;65.59;96195.31;10325886;28;20531;-76
2022/11/03 12:35:57;;;;;;;4.47;2.05;;;;;;;16.00;63.18;96157.59;10312030;28;21117;-76
2022/11/03 12:41:19;;;;;;;5.82;2.38;;;;;;;14.94;63.87;96145.84;10366817;28;20710;-76
2022/11/03 12:46:19;;;;;;;5.35;2.05;;;;;;;15.58;64.47;96170.94;10363232;28;20220;-76
2022/11/03 12:51:21;;;;;;;6.55;2.30;;;;;;;16.86;61.11;96124.00;10366427;28;20186;-75
2022/11/03 12:56:21;;;;;;;6.57;2.50;;;;;;;17.03;60.00;96111.13;10364747;28;20186;-75
2022/11/03 13:01:22;;;;;;;6.65;2.28;;;;;;;16.25;60.32;96098.78;10364000;28;20221;-76
2022/11/03 13:06:22;;;;;;;7.60;2.55;;;;;;;13.89;68.73;96211.69;10367235;28;20189;-76
2022/11/03 13:16:42;;;;;;;5.70;2.80;;;;;;;12.51;73.43;96239.63;10366482;28;20197;-76
2022/11/03 13:21:42;;;;;;;7.63;2.53;;;;;;;12.78;73.41;96217.16;10367024;28;20221;-76
2022/11/03 13:26:43;;;;;;;5.68;2.83;;;;;;;12.73;73.53;96195.88;10367342;28;20193;-75
2022/11/03 13:31:43;;;;;;;8.70;2.47;;;;;;;11.81;75.80;96210.84;10345322;28;20181;-74
2022/11/03 13:36:44;;;;;;;6.57;2.75;;;;;;;11.57;77.97;96222.34;10327235;28;20771;-76
2022/11/03 13:41:44;;;;;;;10.02;3.00;;;;;;;11.36;79.08;96197.59;10366733;28;20274;-75
2022/11/03 13:46:44;;;;;;;9.30;3.53;;;;;;;11.51;79.07;96178.44;10366570;28;20666;-75
2022/11/03 13:51:45;;;;;;;6.32;3.22;;;;;;;11.77;79.43;96163.13;10362270;28;20201;-76
2022/11/03 13:56:45;;;;;;;9.25;3.25;;;;;;;12.13;77.30;96127.59;10365755;28;20276;-75
2022/11/03 14:01:46;;;;;;;6.45;2.35;;;;;;;12.62;76.17;96111.22;10361842;28;20217;-75
2022/11/03 14:06:46;;;;;;;5.97;3.22;;;;;;;12.89;73.90;96084.44;10364206;28;20182;-75
2022/11/03 14:17:06;;;;;;;9.68;3.88;;;;;;;12.97;73.93;96068.53;10359164;28;20190;-75
2022/11/03 14:22:06;;;;;;;6.70;2.95;;;;;;;12.77;75.45;96077.03;10365087;28;20984;-75
2022/11/03 14:27:07;;;;;;;7.65;3.38;;;;;;;11.54;77.96;96099.41;10365915;28;20844;-76
2022/11/03 14:32:08;;;;;;;5.53;2.80;;;;;;;10.99;81.41;96136.19;10349715;28;20194;-75
2022/11/03 14:37:09;;;;;;;9.17;3.73;;;;;;;10.50;84.25;96144.28;10363770;28;20233;-75
2022/11/03 14:42:14;;;;;;;9.53;4.30;;;;;;;10.46;85.55;96122.03;10340613;28;20305;-75
2022/11/03 14:47:20;;;;;;;14.63;5.00;;;;;;;10.18;87.25;96115.44;10350173;28;20190;-75
2022/11/03 14:52:20;;;;;;;8.97;3.80;;;;;;;9.91;90.08;96114.03;10346398;28;21661;-75
2022/11/03 14:57:21;;;;;;;14.40;6.30;;;;;;;9.54;93.12;96118.00;10370427;28;20265;-76
2022/11/03 15:02:21;;;;;;;11.10;5.90;;;;;;;9.44;96.14;96093.81;10371742;28;20217;-77
2022/11/03 15:07:21;;;;;;;14.83;6.03;;;;;;;9.40;98.05;96066.38;10367209;28;20220;-76
2022/11/03 15:12:22;;;;;;;15.40;6.30;;;;;;;9.35;99.49;96047.75;10343665;28;20185;-76
2022/11/03 15:17:22;;;;;;;13.07;5.60;;;;;;;9.33;100.00;96040.09;10349633;28;20646;-76
2022/11/03 15:22:22;;;;;;;12.00;6.40;;;;;;;9.35;100.00;96021.63;10344681;28;20600;-75
2022/11/03 15:27:23;;;;;;;15.57;6.70;;;;;;;9.34;100.00;96022.59;10342924;28;20200;-76
2022/11/03 15:32:23;;;;;;;12.10;6.23;;;;;;;9.18;100.00;96018.22;10342431;28;20189;-76
2022/11/03 15:37:24;;;;;;;18.40;8.10;;;;;;;9.14;100.00;96017.69;10369223;28;20233;-76
2022/11/03 15:42:24;;;;;;;16.00;9.20;;;;;;;9.11;100.00;96018.03;10362881;28;20232;-76
2022/11/03 15:47:25;;;;;;;16.67;9.67;;;;;;;9.11;100.00;95994.50;10370537;28;20193;-76
2022/11/03 15:52:25;;;;;;;17.13;8.90;;;;;;;9.08;100.00;95976.56;10369544;28;20189;-77
2022/11/03 15:57:25;;;;;;;15.57;7.50;;;;;;;9.18;100.00;95976.41;10357297;28;20197;-75
2022/11/03 16:02:26;;;;;;;14.70;9.93;;;;;;;9.18;100.00;95964.13;10336198;28;20248;-76
2022/11/03 16:13:33;;;;;;;13.03;7.03;;;;;;;9.22;100.00;95962.84;10335415;28;20189;-75
2022/11/03 16:18:33;;;;;;;19.97;8.50;;;;;;;9.36;100.00;95971.78;10367401;28;20228;-76
2022/11/03 16:23:34;;;;;;;13.23;6.37;;;;;;;9.43;100.00;95971.91;10367423;28;20189;-76
2022/11/03 16:28:34;;;;;;;13.10;8.20;;;;;;;9.41;100.00;95961.63;10367861;28;20634;-75
2022/11/03 16:33:35;;;;;;;10.03;6.63;;;;;;;9.38;100.00;95951.50;10366279;28;20219;-75
2022/11/03 16:38:35;;;;;;;17.50;9.20;;;;;;;9.39;100.00;95952.34;10359302;28;20577;-76
2022/11/03 16:43:35;;;;;;;15.30;10.33;;;;;;;9.39;100.00;95940.09;10364398;28;20201;-76
2022/11/03 16:48:36;;;;;;;15.93;8.30;;;;;;;9.45;100.00;95938.59;10368069;28;20197;-75
2022/11/03 16:53:36;;;;;;;12.23;7.97;;;;;;;9.52;100.00;95941.34;10367576;28;20205;-75
2022/11/03 16:58:37;;;;;;;25.83;12.93;;;;;;;9.68;100.00;95920.38;10363476;28;20236;-75
2022/11/03 17:03:37;;;;;;;22.73;13.53;;;;;;;9.75;100.00;95913.44;10356016;28;20191;-75
2022/11/03 17:08:38;;;;;;;23.10;10.33;;;;;;;9.70;100.00;95902.69;10349737;28;20192;-75
2022/11/03 17:13:38;;;;;;;33.40;18.23;;;;;;;9.76;100.00;95893.34;10367032;28;20277;-75
2022/11/03 17:18:39;;;;;;;10.03;7.20;;;;;;;9.81;100.00;95886.59;10366680;28;20221;-75
2022/11/03 17:23:39;;;;;;;19.57;12.30;;;;;;;9.80;100.00;95879.75;10356384;28;20273;-75
2022/11/03 17:28:40;;;;;;;12.80;7.43;;;;;;;9.80;100.00;95892.00;10367826;28;20185;-75
2022/11/03 17:33:40;;;;;;;18.53;7.37;;;;;;;9.90;100.00;95878.72;10367391;28;20199;-75
2022/11/03 17:38:41;;;;;;;8.97;5.57;;;;;;;9.93;100.00;95858.25;10367265;28;20225;-75
2022/11/03 17:43:41;;;;;;;12.10;6.97;;;;;;;9.95;100.00;95872.00;10366600;28;20197;-75
2022/11/03 17:48:42;;;;;;;13.03;6.00;;;;;;;9.98;100.00;95863.81;10367353;28;20177;-75
2022/11/03 17:53:42;;;;;;;10.57;6.03;;;;;;;10.00;100.00;95853.97;10367398;28;20193;-75
2022/11/03 17:58:43;;;;;;;13.60;7.00;;;;;;;10.08;100.00;95845.25;10367049;28;20221;-75
2022/11/03 18:03:43;;;;;;;11.23;7.17;;;;;;;10.13;100.00;95837.69;10367447;28;20197;-75
2022/11/03 18:08:44;;;;;;;14.03;8.63;;;;;;;10.10;100.00;95845.06;10367124;28;20189;-75
2022/11/03 18:13:45;;;;;;;16.47;7.77;;;;;;;10.13;100.00;95827.19;10366597;28;20234;-75
2022/11/03 18:18:46;;;;;;;18.07;10.47;;;;;;;10.02;100.00;95822.41;10366822;28;20271;-75
2022/11/03 18:23:47;;;;;;;14.60;9.13;;;;;;;10.10;100.00;95813.66;10367044;28;20198;-75
2022/11/03 18:28:49;;;;;;;15.83;10.43;;;;;;;10.17;100.00;95791.03;10379434;28;20204;-76
2022/11/03 18:33:50;;;;;;;20.27;12.87;;;;;;;10.13;100.00;95785.34;10374698;28;20192;-75
2022/11/03 18:38:54;;;;;;;21.40;13.23;;;;;;;10.17;100.00;95781.38;10373950;28;20763;-75
2022/11/03 18:43:55;;;;;;;19.63;12.93;;;;;;;10.16;100.00;95744.91;10356390;28;20197;-75
2022/11/03 18:48:55;;;;;;;23.03;13.07;;;;;;;10.17;100.00;95736.88;10374195;28;20193;-75
2022/11/03 18:53:55;;;;;;;17.97;12.17;;;;;;;10.26;100.00;95723.72;10374045;28;20197;-75
2022/11/03 18:58:56;;;;;;;17.80;9.13;;;;;;;10.28;100.00;95724.38;10373579;28;20352;-75
2022/11/03 19:03:56;;;;;;;15.73;10.33;;;;;;;10.24;100.00;95710.81;10373434;28;20518;-75
2022/11/03 19:09:43;;;;;;;22.33;15.40;;;;;;;10.16;100.00;95706.47;10370906;28;20197;-75
2022/11/03 19:14:46;;;;;;;24.03;12.37;;;;;;;10.24;100.00;95694.28;10373168;28;20648;-75
2022/11/03 19:19:46;;;;;;;19.67;12.67;;;;;;;10.18;100.00;95699.25;10354220;28;20201;-76
2022/11/03 19:24:47;;;;;;;25.90;15.80;;;;;;;10.21;100.00;95681.56;10371765;28;20193;-76
2022/11/03 19:29:48;;;;;;;28.27;15.10;;;;;;;10.28;100.00;95672.00;10372699;28;20185;-76
2022/11/03 19:34:54;;;;;;;23.50;13.47;;;;;;;10.37;100.00;95668.34;10372348;28;20189;-76
2022/11/03 19:39:55;;;;;;;20.97;13.90;;;;;;;10.40;100.00;95664.53;10370952;28;20241;-75
2022/11/03 19:44:57;;;;;;;21.83;15.40;;;;;;;10.26;100.00;95668.75;10371815;28;20681;-75
2022/11/03 19:56:23;;;;;;;27.10;16.37;;;;;;;10.31;100.00;95648.09;10369103;28;20185;-75
2022/11/03 20:01:23;;;;;;;22.20;16.57;;;;;;;10.29;100.00;95639.59;10370482;28;20213;-75
2022/11/03 20:06:24;;;;;;;22.57;17.83;;;;;;;10.33;100.00;95627.81;10369806;28;20189;-75
2022/11/03 20:11:24;;;;;;;19.57;14.23;;;;;;;10.32;100.00;95619.13;10369626;28;20645;-75
2022/11/03 20:16:24;;;;;;;27.53;18.80;;;;;;;10.31;100.00;95620.09;10368270;28;20284;-75
2022/11/03 20:21:25;;;;;;;22.87;14.40;;;;;;;10.23;100.00;95609.75;10330117;28;20618;-75
2022/11/03 20:26:26;;;;;;;27.13;17.53;;;;;;;10.16;100.00;95616.69;10346564;28;20185;-75
2022/11/03 20:31:26;;;;;;;29.33;19.67;;;;;;;10.13;100.00;95607.38;10336243;28;20483;-75
2022/11/03 20:36:29;;;;;;;23.07;18.87;;;;;;;10.14;100.00;95597.75;10337122;28;20236;-75
2022/11/03 20:41:30;;;;;;;23.57;18.53;;;;;;;10.21;100.00;95590.75;10367544;28;20257;-75
2022/11/03 20:46:32;;;;;;;24.30;19.17;;;;;;;10.09;100.00;95589.59;10345541;28;21086;-75
2022/11/03 20:51:34;;;;;;;18.00;11.43;;;;;;;10.10;100.00;95581.56;10351069;28;20197;-75
2022/11/03 20:56:35;;;;;;;25.00;16.33;;;;;;;10.05;100.00;95614.53;10346845;28;20205;-75
2022/11/03 21:01:35;;;;;;;16.93;11.23;;;;;;;10.08;100.00;95580.94;10365039;28;20213;-75
2022/11/03 21:06:36;;;;;;;23.87;17.77;;;;;;;10.02;100.00;95586.09;10333656;28;20725;-75
2022/11/03 21:12:15;;;;;;;31.67;17.90;;;;;;;9.94;100.00;95589.63;10350219;28;20235;-76
2022/11/03 21:22:38;;;;;;;29.43;20.53;;;;;;;9.79;100.00;95581.75;10368187;28;20229;-75
2022/11/03 21:27:39;;;;;;;33.80;21.63;;;;;;;9.69;100.00;95582.00;10367642;28;20198;-75
2022/11/03 21:32:39;;;;;;;16.43;11.13;;;;;;;9.68;100.00;95582.19;10350357;28;20185;-75
2022/11/03 21:37:40;;;;;;;23.30;17.93;;;;;;;9.67;100.00;95586.63;10367069;28;20315;-75
2022/11/03 21:53:18;;;;;;;26.33;20.00;;;;;;;9.63;100.00;95591.41;10367740;28;20193;-75
2022/11/03 21:58:18;;;;;;;14.30;10.63;;;;;;;9.66;100.00;95578.94;10367641;28;20217;-75
2022/11/03 22:03:19;;;;;;;27.67;17.50;;;;;;;9.64;100.00;95584.34;10369147;28;20676;-75
2022/11/03 22:08:19;;;;;;;28.20;19.53;;;;;;;9.51;100.00;95584.16;10375300;28;20185;-75
2022/11/03 22:13:19;;;;;;;25.40;17.53;;;;;;;9.55;100.00;95564.50;10375347;28;20201;-75
2022/11/03 22:18:20;;;;;;;29.90;18.53;;;;;;;9.57;100.00;95560.72;10357767;28;20225;-75
2022/11/03 22:28:39;;;;;;;21.63;16.67;;;;;;;9.58;100.00;95538.81;10374721;28;20566;-74
2022/11/03 22:49:37;;;;;;;22.63;15.20;;;;;;;9.57;100.00;95489.31;10374476;28;20201;-75
2022/11/03 22:54:38;;;;;;;22.50;15.03;;;;;;;9.64;100.00;95485.78;10374182;28;20221;-75
2022/11/03 22:59:38;;;;;;;16.20;9.47;;;;;;;9.93;100.00;95465.03;10373956;28;20221;-75
2022/11/03 23:04:39;;;;;;;24.57;12.77;;;;;;;9.99;100.00;95446.00;10373750;28;20193;-75
2022/11/03 23:09:39;;;;;;;19.67;12.73;;;;;;;9.80;100.00;95440.34;10373139;28;20239;-75
2022/11/03 23:25:17;;;;;;;21.40;11.80;;;;;;;9.99;100.00;95433.72;10372994;28;20555;-75
2022/11/03 23:30:18;;;;;;;20.47;12.33;;;;;;;9.87;100.00;95422.09;10372526;28;20185;-75
2022/11/03 23:35:18;;;;;;;19.57;12.77;;;;;;;9.80;100.00;95401.13;10372639;28;20189;-75
2022/11/03 23:40:18;;;;;;;16.03;11.70;;;;;;;9.83;100.00;95389.44;10371757;28;20239;-75
2022/11/03 23:50:38;;;;;;;21.60;13.90;;;;;;;9.84;100.00;95388.47;10372029;28;20591;-75
